Portada
METAR-TAF:

METAR-TAF

Aeroports :

Georgetown, Illa de l'Ascensió

latitud: 07-58S, longitud: 014-24W, altitud: 86 m

Observació

L'informe es va fer fa 18 hores i 42 minuts, a les 10:50 UTC
Vent 17 kt del Sud-Est
Temperatura 25°C
Humitat 69%
Pressió 1015 hPa
Visibilitat 10 km o més
Escasses núvols a una alçada de 2200 ft
Cel ennuvolat a una alçada de 6000 ft

METAR: FHAW 271050Z 14017KT 9999 FEW022 BKN060 25/19 Q1015 NOSIG RMK BLU BLU

Hora: 05:32 (05:32 UTC)

Pronòstic

L'informe es va fer fa 22 hores i 2 minuts, a les 07:30 UTC
Pronòstic vàlid del 27 a les 09 UTC al 28 a les 03 UTC
Vent 15 kt del Sud-Est
Visibilitat 10 km o més
Escasses núvols a una alçada de 2000 ft
Cel ennuvolat a una alçada de 4500 ft
Probabilitat 30% :
Temporalment
l' 27 a les 21 UTC al 28 a les 03 UTC
Visibilitat: 7000 m
Núvols disperses a una alçada de 1400 ft
xàfecs de pluja

TAF: FHAW 270730Z 2709/2803 14015KT 9999 FEW020 BKN045 PROB30 TEMPO 2721/2803 7000 -SHRA SCT014

Observacions i pronòstics meteorològics de més de 4000 aeroports (METAR i TAF).

Les estacions disponibles són els punts grocs i vermells al mapa.

Posi el ratolí al punt desitjat per veure el nom de l'estació.

Feu clic per veure les observacions i els pronòstics meteorològics.

Per canviar el mapa: feu clic els botons verds amb una creu de color negre per apropar; al botó verd amb un guió per allunyar la imatge; o en les fletxes verdes per a mapes adjacents.


METAR-TAF: